sensor_id;sensor_type;location;lat;lon;timestamp;P1;durP1;ratioP1;P2;durP2;ratioP2
6388;SDS011;3227;42.654;23.360;2022-10-22T00:02:17;27.50;;;16.90;;
6388;SDS011;3227;42.654;23.360;2022-10-22T00:04:45;26.37;;;16.37;;
6388;SDS011;3227;42.654;23.360;2022-10-22T00:07:12;25.40;;;16.40;;
6388;SDS011;3227;42.654;23.360;2022-10-22T00:09:39;24.37;;;16.30;;
6388;SDS011;3227;42.654;23.360;2022-10-22T00:12:06;27.57;;;16.47;;
6388;SDS011;3227;42.654;23.360;2022-10-22T00:14:35;31.43;;;16.57;;
6388;SDS011;3227;42.654;23.360;2022-10-22T00:17:02;30.67;;;16.53;;
6388;SDS011;3227;42.654;23.360;2022-10-22T00:19:29;27.00;;;17.30;;
6388;SDS011;3227;42.654;23.360;2022-10-22T00:21:56;30.57;;;16.27;;
6388;SDS011;3227;42.654;23.360;2022-10-22T00:24:23;24.97;;;15.80;;
6388;SDS011;3227;42.654;23.360;2022-10-22T00:26:50;23.53;;;16.70;;
6388;SDS011;3227;42.654;23.360;2022-10-22T00:29:16;30.63;;;16.27;;
6388;SDS011;3227;42.654;23.360;2022-10-22T00:31:46;23.53;;;16.37;;
6388;SDS011;3227;42.654;23.360;2022-10-22T00:34:15;21.67;;;14.53;;
6388;SDS011;3227;42.654;23.360;2022-10-22T00:36:42;24.33;;;15.53;;
6388;SDS011;3227;42.654;23.360;2022-10-22T00:39:09;23.37;;;15.73;;
6388;SDS011;3227;42.654;23.360;2022-10-22T00:41:37;22.57;;;16.20;;
6388;SDS011;3227;42.654;23.360;2022-10-22T00:44:04;26.50;;;15.57;;
6388;SDS011;3227;42.654;23.360;2022-10-22T00:46:31;25.57;;;16.13;;
6388;SDS011;3227;42.654;23.360;2022-10-22T00:49:00;24.70;;;15.67;;
6388;SDS011;3227;42.654;23.360;2022-10-22T00:51:31;28.17;;;16.93;;
6388;SDS011;3227;42.654;23.360;2022-10-22T00:54:00;24.70;;;16.43;;
6388;SDS011;3227;42.654;23.360;2022-10-22T00:56:30;29.07;;;16.37;;
6388;SDS011;3227;42.654;23.360;2022-10-22T00:58:58;26.03;;;16.80;;
6388;SDS011;3227;42.654;23.360;2022-10-22T01:01:28;30.90;;;16.80;;
6388;SDS011;3227;42.654;23.360;2022-10-22T01:03:56;27.37;;;17.13;;
6388;SDS011;3227;42.654;23.360;2022-10-22T01:06:26;23.47;;;15.77;;
6388;SDS011;3227;42.654;23.360;2022-10-22T01:09:02;26.50;;;16.03;;
6388;SDS011;3227;42.654;23.360;2022-10-22T01:11:38;25.87;;;15.77;;
6388;SDS011;3227;42.654;23.360;2022-10-22T01:14:14;29.10;;;17.87;;
6388;SDS011;3227;42.654;23.360;2022-10-22T01:16:49;24.53;;;15.73;;
6388;SDS011;3227;42.654;23.360;2022-10-22T01:19:43;25.67;;;16.27;;
6388;SDS011;3227;42.654;23.360;2022-10-22T01:22:23;26.77;;;16.37;;
6388;SDS011;3227;42.654;23.360;2022-10-22T01:24:56;23.30;;;15.13;;
6388;SDS011;3227;42.654;23.360;2022-10-22T01:27:29;26.47;;;16.30;;
6388;SDS011;3227;42.654;23.360;2022-10-22T01:30:07;26.60;;;16.37;;
6388;SDS011;3227;42.654;23.360;2022-10-22T01:32:35;24.27;;;15.83;;
6388;SDS011;3227;42.654;23.360;2022-10-22T01:35:08;30.27;;;16.93;;
6388;SDS011;3227;42.654;23.360;2022-10-22T01:37:39;27.17;;;16.67;;
6388;SDS011;3227;42.654;23.360;2022-10-22T01:40:09;25.13;;;17.53;;
6388;SDS011;3227;42.654;23.360;2022-10-22T01:42:40;24.57;;;16.83;;
6388;SDS011;3227;42.654;23.360;2022-10-22T01:45:12;26.30;;;16.37;;
6388;SDS011;3227;42.654;23.360;2022-10-22T01:47:42;30.17;;;15.47;;
6388;SDS011;3227;42.654;23.360;2022-10-22T01:50:22;24.23;;;15.60;;
6388;SDS011;3227;42.654;23.360;2022-10-22T01:53:06;25.60;;;15.37;;
6388;SDS011;3227;42.654;23.360;2022-10-22T01:55:45;24.30;;;15.30;;
6388;SDS011;3227;42.654;23.360;2022-10-22T01:58:23;25.43;;;15.53;;
6388;SDS011;3227;42.654;23.360;2022-10-22T02:01:02;30.37;;;16.60;;
6388;SDS011;3227;42.654;23.360;2022-10-22T02:03:35;25.83;;;16.67;;
6388;SDS011;3227;42.654;23.360;2022-10-22T02:06:07;25.57;;;15.93;;
6388;SDS011;3227;42.654;23.360;2022-10-22T02:08:39;27.30;;;16.47;;
6388;SDS011;3227;42.654;23.360;2022-10-22T02:11:06;26.43;;;18.20;;
6388;SDS011;3227;42.654;23.360;2022-10-22T02:13:35;25.90;;;17.30;;
6388;SDS011;3227;42.654;23.360;2022-10-22T02:16:08;28.20;;;18.57;;
6388;SDS011;3227;42.654;23.360;2022-10-22T02:18:39;27.33;;;16.93;;
6388;SDS011;3227;42.654;23.360;2022-10-22T02:21:10;24.47;;;17.83;;
6388;SDS011;3227;42.654;23.360;2022-10-22T02:23:37;33.30;;;18.13;;
6388;SDS011;3227;42.654;23.360;2022-10-22T02:26:06;28.00;;;16.80;;
6388;SDS011;3227;42.654;23.360;2022-10-22T02:28:38;28.63;;;16.47;;
6388;SDS011;3227;42.654;23.360;2022-10-22T02:31:13;24.37;;;15.77;;
6388;SDS011;3227;42.654;23.360;2022-10-22T02:33:45;30.60;;;15.67;;
6388;SDS011;3227;42.654;23.360;2022-10-22T02:36:15;24.37;;;14.77;;
6388;SDS011;3227;42.654;23.360;2022-10-22T02:38:44;24.33;;;15.43;;
6388;SDS011;3227;42.654;23.360;2022-10-22T02:41:13;23.23;;;16.03;;
6388;SDS011;3227;42.654;23.360;2022-10-22T02:43:41;23.80;;;15.77;;
6388;SDS011;3227;42.654;23.360;2022-10-22T02:46:09;27.97;;;16.43;;
6388;SDS011;3227;42.654;23.360;2022-10-22T02:48:38;27.80;;;17.23;;
6388;SDS011;3227;42.654;23.360;2022-10-22T02:51:05;24.37;;;17.03;;
6388;SDS011;3227;42.654;23.360;2022-10-22T02:53:32;28.40;;;17.10;;
6388;SDS011;3227;42.654;23.360;2022-10-22T02:55:58;24.80;;;16.20;;
6388;SDS011;3227;42.654;23.360;2022-10-22T02:58:25;29.20;;;17.60;;
6388;SDS011;3227;42.654;23.360;2022-10-22T03:00:52;27.77;;;16.77;;
6388;SDS011;3227;42.654;23.360;2022-10-22T03:03:19;34.27;;;17.20;;
6388;SDS011;3227;42.654;23.360;2022-10-22T03:08:54;27.83;;;17.80;;
6388;SDS011;3227;42.654;23.360;2022-10-22T03:11:20;22.93;;;16.07;;
6388;SDS011;3227;42.654;23.360;2022-10-22T03:13:47;26.40;;;16.13;;
6388;SDS011;3227;42.654;23.360;2022-10-22T03:16:14;26.10;;;16.80;;
6388;SDS011;3227;42.654;23.360;2022-10-22T03:18:41;25.67;;;16.07;;
6388;SDS011;3227;42.654;23.360;2022-10-22T03:21:09;31.57;;;17.63;;
6388;SDS011;3227;42.654;23.360;2022-10-22T03:23:42;23.80;;;15.87;;
6388;SDS011;3227;42.654;23.360;2022-10-22T03:26:10;26.13;;;16.87;;
6388;SDS011;3227;42.654;23.360;2022-10-22T03:28:39;31.87;;;17.63;;
6388;SDS011;3227;42.654;23.360;2022-10-22T03:31:07;23.97;;;15.97;;
6388;SDS011;3227;42.654;23.360;2022-10-22T03:33:34;26.83;;;16.03;;
6388;SDS011;3227;42.654;23.360;2022-10-22T03:36:01;26.77;;;16.53;;
6388;SDS011;3227;42.654;23.360;2022-10-22T03:38:30;27.10;;;16.53;;
6388;SDS011;3227;42.654;23.360;2022-10-22T03:40:57;31.10;;;18.07;;
6388;SDS011;3227;42.654;23.360;2022-10-22T03:43:25;30.47;;;17.93;;
6388;SDS011;3227;42.654;23.360;2022-10-22T03:45:52;26.43;;;18.00;;
6388;SDS011;3227;42.654;23.360;2022-10-22T03:48:19;26.40;;;17.67;;
6388;SDS011;3227;42.654;23.360;2022-10-22T03:50:46;30.90;;;18.27;;
6388;SDS011;3227;42.654;23.360;2022-10-22T03:53:13;29.73;;;17.17;;
6388;SDS011;3227;42.654;23.360;2022-10-22T03:55:40;32.17;;;18.10;;
6388;SDS011;3227;42.654;23.360;2022-10-22T03:58:06;29.07;;;17.73;;
6388;SDS011;3227;42.654;23.360;2022-10-22T04:00:35;27.60;;;17.47;;
6388;SDS011;3227;42.654;23.360;2022-10-22T04:03:02;28.23;;;19.03;;
6388;SDS011;3227;42.654;23.360;2022-10-22T04:05:30;34.40;;;18.00;;
6388;SDS011;3227;42.654;23.360;2022-10-22T04:07:57;28.17;;;17.87;;
6388;SDS011;3227;42.654;23.360;2022-10-22T04:10:24;30.00;;;18.07;;
6388;SDS011;3227;42.654;23.360;2022-10-22T04:12:51;31.23;;;17.33;;
6388;SDS011;3227;42.654;23.360;2022-10-22T04:15:18;28.67;;;17.70;;
6388;SDS011;3227;42.654;23.360;2022-10-22T04:17:46;27.30;;;18.93;;
6388;SDS011;3227;42.654;23.360;2022-10-22T04:20:13;28.40;;;17.70;;
6388;SDS011;3227;42.654;23.360;2022-10-22T04:22:40;31.00;;;18.13;;
6388;SDS011;3227;42.654;23.360;2022-10-22T04:25:07;33.03;;;18.50;;
6388;SDS011;3227;42.654;23.360;2022-10-22T04:27:34;28.00;;;17.80;;
6388;SDS011;3227;42.654;23.360;2022-10-22T04:30:02;31.13;;;18.47;;
6388;SDS011;3227;42.654;23.360;2022-10-22T04:32:30;30.13;;;18.03;;
6388;SDS011;3227;42.654;23.360;2022-10-22T04:34:58;26.93;;;16.53;;
6388;SDS011;3227;42.654;23.360;2022-10-22T04:37:25;21.87;;;14.37;;
6388;SDS011;3227;42.654;23.360;2022-10-22T04:39:52;21.17;;;13.17;;
6388;SDS011;3227;42.654;23.360;2022-10-22T04:42:19;24.73;;;14.47;;
6388;SDS011;3227;42.654;23.360;2022-10-22T04:44:45;21.73;;;13.07;;
6388;SDS011;3227;42.654;23.360;2022-10-22T04:47:12;22.77;;;13.13;;
6388;SDS011;3227;42.654;23.360;2022-10-22T04:49:39;18.37;;;12.53;;
6388;SDS011;3227;42.654;23.360;2022-10-22T04:52:07;17.33;;;12.17;;
6388;SDS011;3227;42.654;23.360;2022-10-22T04:54:34;25.87;;;15.07;;
6388;SDS011;3227;42.654;23.360;2022-10-22T04:57:01;21.23;;;13.43;;
6388;SDS011;3227;42.654;23.360;2022-10-22T04:59:27;21.53;;;14.33;;
6388;SDS011;3227;42.654;23.360;2022-10-22T05:01:54;22.67;;;13.47;;
6388;SDS011;3227;42.654;23.360;2022-10-22T05:04:21;25.37;;;14.33;;
6388;SDS011;3227;42.654;23.360;2022-10-22T05:06:48;20.83;;;14.40;;
6388;SDS011;3227;42.654;23.360;2022-10-22T05:09:17;37.87;;;20.00;;
6388;SDS011;3227;42.654;23.360;2022-10-22T05:11:46;55.67;;;28.67;;
6388;SDS011;3227;42.654;23.360;2022-10-22T05:14:14;29.23;;;16.27;;
6388;SDS011;3227;42.654;23.360;2022-10-22T05:16:43;30.37;;;14.70;;
6388;SDS011;3227;42.654;23.360;2022-10-22T05:19:14;27.07;;;14.43;;
6388;SDS011;3227;42.654;23.360;2022-10-22T05:21:42;21.07;;;14.00;;
6388;SDS011;3227;42.654;23.360;2022-10-22T05:24:09;23.80;;;14.03;;
6388;SDS011;3227;42.654;23.360;2022-10-22T05:26:37;22.87;;;13.63;;
6388;SDS011;3227;42.654;23.360;2022-10-22T05:29:04;26.80;;;15.13;;
6388;SDS011;3227;42.654;23.360;2022-10-22T05:31:31;30.87;;;15.47;;
6388;SDS011;3227;42.654;23.360;2022-10-22T05:33:58;24.57;;;15.27;;
6388;SDS011;3227;42.654;23.360;2022-10-22T05:36:24;26.27;;;15.37;;
6388;SDS011;3227;42.654;23.360;2022-10-22T05:38:51;23.53;;;14.90;;
6388;SDS011;3227;42.654;23.360;2022-10-22T05:41:20;23.10;;;14.73;;
6388;SDS011;3227;42.654;23.360;2022-10-22T05:43:49;25.97;;;14.23;;
6388;SDS011;3227;42.654;23.360;2022-10-22T05:46:20;26.30;;;15.67;;
6388;SDS011;3227;42.654;23.360;2022-10-22T05:48:48;35.43;;;16.53;;
6388;SDS011;3227;42.654;23.360;2022-10-22T05:51:15;30.97;;;15.80;;
6388;SDS011;3227;42.654;23.360;2022-10-22T05:53:42;34.47;;;15.70;;
6388;SDS011;3227;42.654;23.360;2022-10-22T05:56:10;35.33;;;15.90;;
6388;SDS011;3227;42.654;23.360;2022-10-22T05:58:38;29.60;;;15.77;;
6388;SDS011;3227;42.654;23.360;2022-10-22T06:01:07;28.57;;;15.20;;
6388;SDS011;3227;42.654;23.360;2022-10-22T06:03:37;28.23;;;15.20;;
6388;SDS011;3227;42.654;23.360;2022-10-22T06:06:04;32.03;;;14.63;;
6388;SDS011;3227;42.654;23.360;2022-10-22T06:08:40;26.57;;;13.43;;
6388;SDS011;3227;42.654;23.360;2022-10-22T06:11:07;33.33;;;15.73;;
6388;SDS011;3227;42.654;23.360;2022-10-22T06:13:34;33.07;;;14.93;;
6388;SDS011;3227;42.654;23.360;2022-10-22T06:16:01;25.40;;;15.27;;
6388;SDS011;3227;42.654;23.360;2022-10-22T06:18:29;29.60;;;15.50;;
6388;SDS011;3227;42.654;23.360;2022-10-22T06:20:56;25.87;;;15.60;;
6388;SDS011;3227;42.654;23.360;2022-10-22T06:23:29;33.00;;;17.07;;
6388;SDS011;3227;42.654;23.360;2022-10-22T06:25:56;28.43;;;16.87;;
6388;SDS011;3227;42.654;23.360;2022-10-22T06:28:24;29.13;;;17.17;;
6388;SDS011;3227;42.654;23.360;2022-10-22T06:30:51;29.80;;;17.90;;
6388;SDS011;3227;42.654;23.360;2022-10-22T06:33:18;29.27;;;17.63;;
6388;SDS011;3227;42.654;23.360;2022-10-22T06:35:46;35.77;;;18.03;;
6388;SDS011;3227;42.654;23.360;2022-10-22T06:38:13;28.00;;;19.03;;
6388;SDS011;3227;42.654;23.360;2022-10-22T06:40:39;30.47;;;18.53;;
6388;SDS011;3227;42.654;23.360;2022-10-22T06:43:07;31.73;;;19.70;;
6388;SDS011;3227;42.654;23.360;2022-10-22T06:45:34;35.63;;;19.13;;
6388;SDS011;3227;42.654;23.360;2022-10-22T06:48:01;34.73;;;19.70;;
6388;SDS011;3227;42.654;23.360;2022-10-22T06:50:28;32.97;;;18.50;;
6388;SDS011;3227;42.654;23.360;2022-10-22T06:52:57;33.20;;;21.20;;
6388;SDS011;3227;42.654;23.360;2022-10-22T06:55:24;36.50;;;19.13;;
6388;SDS011;3227;42.654;23.360;2022-10-22T06:57:51;33.17;;;20.40;;
6388;SDS011;3227;42.654;23.360;2022-10-22T07:00:18;40.13;;;21.13;;
6388;SDS011;3227;42.654;23.360;2022-10-22T07:02:48;34.57;;;21.43;;
6388;SDS011;3227;42.654;23.360;2022-10-22T07:05:17;28.83;;;20.27;;
6388;SDS011;3227;42.654;23.360;2022-10-22T07:07:43;33.47;;;20.70;;
6388;SDS011;3227;42.654;23.360;2022-10-22T07:10:12;33.13;;;22.47;;
6388;SDS011;3227;42.654;23.360;2022-10-22T07:12:39;31.40;;;20.63;;
6388;SDS011;3227;42.654;23.360;2022-10-22T07:15:06;40.17;;;23.90;;
6388;SDS011;3227;42.654;23.360;2022-10-22T07:17:33;36.50;;;22.43;;
6388;SDS011;3227;42.654;23.360;2022-10-22T07:20:00;43.07;;;22.67;;
6388;SDS011;3227;42.654;23.360;2022-10-22T07:22:27;33.67;;;22.83;;
6388;SDS011;3227;42.654;23.360;2022-10-22T07:24:54;37.97;;;24.70;;
6388;SDS011;3227;42.654;23.360;2022-10-22T07:27:22;33.30;;;22.73;;
6388;SDS011;3227;42.654;23.360;2022-10-22T07:29:49;35.93;;;22.77;;
6388;SDS011;3227;42.654;23.360;2022-10-22T07:32:15;31.80;;;21.13;;
6388;SDS011;3227;42.654;23.360;2022-10-22T07:34:42;37.50;;;21.83;;
6388;SDS011;3227;42.654;23.360;2022-10-22T07:37:09;30.90;;;21.20;;
6388;SDS011;3227;42.654;23.360;2022-10-22T07:39:36;30.30;;;20.00;;
6388;SDS011;3227;42.654;23.360;2022-10-22T07:42:03;30.63;;;20.87;;
6388;SDS011;3227;42.654;23.360;2022-10-22T07:44:31;36.13;;;20.87;;
6388;SDS011;3227;42.654;23.360;2022-10-22T07:46:58;33.50;;;20.93;;
6388;SDS011;3227;42.654;23.360;2022-10-22T07:49:24;35.30;;;21.30;;
6388;SDS011;3227;42.654;23.360;2022-10-22T07:51:51;29.60;;;21.60;;
6388;SDS011;3227;42.654;23.360;2022-10-22T07:54:18;30.23;;;19.77;;
6388;SDS011;3227;42.654;23.360;2022-10-22T07:56:45;36.03;;;21.73;;
6388;SDS011;3227;42.654;23.360;2022-10-22T07:59:12;37.70;;;21.43;;
6388;SDS011;3227;42.654;23.360;2022-10-22T08:01:40;34.03;;;20.67;;
6388;SDS011;3227;42.654;23.360;2022-10-22T08:04:07;30.87;;;20.93;;
6388;SDS011;3227;42.654;23.360;2022-10-22T08:06:35;29.73;;;19.77;;
6388;SDS011;3227;42.654;23.360;2022-10-22T08:09:02;29.83;;;20.50;;
6388;SDS011;3227;42.654;23.360;2022-10-22T08:11:29;24.90;;;18.83;;
6388;SDS011;3227;42.654;23.360;2022-10-22T08:13:57;25.17;;;18.80;;
6388;SDS011;3227;42.654;23.360;2022-10-22T08:16:24;32.07;;;18.20;;
6388;SDS011;3227;42.654;23.360;2022-10-22T08:18:52;28.17;;;18.60;;
6388;SDS011;3227;42.654;23.360;2022-10-22T08:21:19;26.67;;;18.60;;
6388;SDS011;3227;42.654;23.360;2022-10-22T08:23:46;28.13;;;18.47;;
6388;SDS011;3227;42.654;23.360;2022-10-22T08:26:13;27.87;;;18.27;;
6388;SDS011;3227;42.654;23.360;2022-10-22T08:28:39;33.83;;;20.13;;
6388;SDS011;3227;42.654;23.360;2022-10-22T08:31:06;33.80;;;18.73;;
6388;SDS011;3227;42.654;23.360;2022-10-22T08:33:33;29.00;;;19.23;;
6388;SDS011;3227;42.654;23.360;2022-10-22T08:36:02;31.60;;;19.53;;
6388;SDS011;3227;42.654;23.360;2022-10-22T08:38:29;31.90;;;20.87;;
6388;SDS011;3227;42.654;23.360;2022-10-22T08:40:58;30.77;;;19.50;;
6388;SDS011;3227;42.654;23.360;2022-10-22T08:43:46;28.67;;;19.83;;
6388;SDS011;3227;42.654;23.360;2022-10-22T08:46:45;28.10;;;19.33;;
6388;SDS011;3227;42.654;23.360;2022-10-22T08:49:21;31.50;;;20.63;;
6388;SDS011;3227;42.654;23.360;2022-10-22T08:51:53;28.80;;;19.77;;
6388;SDS011;3227;42.654;23.360;2022-10-22T08:54:22;33.53;;;19.57;;
6388;SDS011;3227;42.654;23.360;2022-10-22T08:56:59;32.37;;;20.40;;
6388;SDS011;3227;42.654;23.360;2022-10-22T08:59:39;30.10;;;19.57;;
6388;SDS011;3227;42.654;23.360;2022-10-22T09:02:15;30.07;;;20.23;;
6388;SDS011;3227;42.654;23.360;2022-10-22T09:04:56;30.57;;;19.57;;
6388;SDS011;3227;42.654;23.360;2022-10-22T09:07:35;31.90;;;20.63;;
6388;SDS011;3227;42.654;23.360;2022-10-22T09:10:12;29.03;;;18.73;;
6388;SDS011;3227;42.654;23.360;2022-10-22T09:12:39;33.63;;;19.57;;
6388;SDS011;3227;42.654;23.360;2022-10-22T09:15:12;31.57;;;19.30;;
6388;SDS011;3227;42.654;23.360;2022-10-22T09:17:40;31.70;;;19.17;;
6388;SDS011;3227;42.654;23.360;2022-10-22T09:20:19;29.90;;;19.50;;
6388;SDS011;3227;42.654;23.360;2022-10-22T09:22:56;36.33;;;19.63;;
6388;SDS011;3227;42.654;23.360;2022-10-22T09:25:31;27.47;;;18.83;;
6388;SDS011;3227;42.654;23.360;2022-10-22T09:28:00;26.20;;;17.93;;
6388;SDS011;3227;42.654;23.360;2022-10-22T09:30:27;28.20;;;18.43;;
6388;SDS011;3227;42.654;23.360;2022-10-22T09:32:58;31.43;;;18.33;;
6388;SDS011;3227;42.654;23.360;2022-10-22T09:35:27;26.17;;;19.17;;
6388;SDS011;3227;42.654;23.360;2022-10-22T09:37:55;34.90;;;18.97;;
6388;SDS011;3227;42.654;23.360;2022-10-22T09:40:22;34.97;;;18.87;;
6388;SDS011;3227;42.654;23.360;2022-10-22T09:42:49;34.13;;;18.70;;
6388;SDS011;3227;42.654;23.360;2022-10-22T09:45:19;28.90;;;19.07;;
6388;SDS011;3227;42.654;23.360;2022-10-22T09:47:48;31.50;;;19.23;;
6388;SDS011;3227;42.654;23.360;2022-10-22T09:50:20;26.00;;;17.97;;
6388;SDS011;3227;42.654;23.360;2022-10-22T09:53:00;30.73;;;19.23;;
6388;SDS011;3227;42.654;23.360;2022-10-22T09:55:31;29.17;;;19.07;;
6388;SDS011;3227;42.654;23.360;2022-10-22T09:57:58;24.70;;;17.50;;
6388;SDS011;3227;42.654;23.360;2022-10-22T10:00:26;28.93;;;18.43;;
6388;SDS011;3227;42.654;23.360;2022-10-22T10:02:55;36.33;;;18.37;;
6388;SDS011;3227;42.654;23.360;2022-10-22T10:05:26;26.63;;;18.33;;
6388;SDS011;3227;42.654;23.360;2022-10-22T10:07:55;32.60;;;18.67;;
6388;SDS011;3227;42.654;23.360;2022-10-22T10:10:29;26.00;;;18.37;;
6388;SDS011;3227;42.654;23.360;2022-10-22T10:13:08;26.47;;;18.87;;
6388;SDS011;3227;42.654;23.360;2022-10-22T10:15:45;28.77;;;18.07;;
6388;SDS011;3227;42.654;23.360;2022-10-22T10:18:23;39.57;;;20.03;;
6388;SDS011;3227;42.654;23.360;2022-10-22T10:21:08;29.53;;;18.10;;
6388;SDS011;3227;42.654;23.360;2022-10-22T10:23:45;26.47;;;18.17;;
6388;SDS011;3227;42.654;23.360;2022-10-22T10:26:21;26.47;;;16.50;;
6388;SDS011;3227;42.654;23.360;2022-10-22T10:28:59;29.40;;;18.07;;
6388;SDS011;3227;42.654;23.360;2022-10-22T10:31:41;29.17;;;17.80;;
6388;SDS011;3227;42.654;23.360;2022-10-22T10:34:28;31.40;;;18.23;;
6388;SDS011;3227;42.654;23.360;2022-10-22T10:37:10;27.10;;;17.30;;
6388;SDS011;3227;42.654;23.360;2022-10-22T10:39:46;29.17;;;18.53;;
6388;SDS011;3227;42.654;23.360;2022-10-22T10:42:32;34.23;;;18.57;;
6388;SDS011;3227;42.654;23.360;2022-10-22T10:45:06;29.80;;;16.57;;
6388;SDS011;3227;42.654;23.360;2022-10-22T10:47:49;23.93;;;16.43;;
6388;SDS011;3227;42.654;23.360;2022-10-22T10:50:33;24.90;;;16.67;;
6388;SDS011;3227;42.654;23.360;2022-10-22T10:53:09;28.10;;;16.87;;
6388;SDS011;3227;42.654;23.360;2022-10-22T10:55:47;20.70;;;15.03;;
6388;SDS011;3227;42.654;23.360;2022-10-22T10:58:23;28.80;;;15.47;;
6388;SDS011;3227;42.654;23.360;2022-10-22T11:00:58;28.17;;;15.80;;
6388;SDS011;3227;42.654;23.360;2022-10-22T11:06:25;27.67;;;16.80;;
6388;SDS011;3227;42.654;23.360;2022-10-22T11:08:58;22.00;;;15.17;;
6388;SDS011;3227;42.654;23.360;2022-10-22T11:11:32;21.47;;;15.47;;
6388;SDS011;3227;42.654;23.360;2022-10-22T11:14:08;26.17;;;15.13;;
6388;SDS011;3227;42.654;23.360;2022-10-22T11:16:41;25.03;;;16.40;;
6388;SDS011;3227;42.654;23.360;2022-10-22T11:19:15;25.20;;;14.47;;
6388;SDS011;3227;42.654;23.360;2022-10-22T11:21:46;21.03;;;14.40;;
6388;SDS011;3227;42.654;23.360;2022-10-22T11:24:18;23.47;;;14.73;;
6388;SDS011;3227;42.654;23.360;2022-10-22T11:26:49;22.63;;;14.97;;
6388;SDS011;3227;42.654;23.360;2022-10-22T11:29:23;20.57;;;13.20;;
6388;SDS011;3227;42.654;23.360;2022-10-22T11:31:54;25.13;;;14.57;;
6388;SDS011;3227;42.654;23.360;2022-10-22T11:34:24;21.33;;;13.87;;
6388;SDS011;3227;42.654;23.360;2022-10-22T11:36:57;20.23;;;14.23;;
6388;SDS011;3227;42.654;23.360;2022-10-22T11:39:26;19.40;;;12.43;;
6388;SDS011;3227;42.654;23.360;2022-10-22T11:41:56;21.63;;;12.53;;
6388;SDS011;3227;42.654;23.360;2022-10-22T11:44:25;27.33;;;13.63;;
6388;SDS011;3227;42.654;23.360;2022-10-22T11:46:55;19.83;;;12.23;;
6388;SDS011;3227;42.654;23.360;2022-10-22T11:49:25;20.63;;;13.00;;
6388;SDS011;3227;42.654;23.360;2022-10-22T11:54:55;19.10;;;13.10;;
6388;SDS011;3227;42.654;23.360;2022-10-22T11:57:27;20.53;;;12.23;;
6388;SDS011;3227;42.654;23.360;2022-10-22T11:59:57;20.87;;;11.57;;
6388;SDS011;3227;42.654;23.360;2022-10-22T12:02:30;20.53;;;11.90;;
6388;SDS011;3227;42.654;23.360;2022-10-22T12:05:17;24.23;;;12.60;;
6388;SDS011;3227;42.654;23.360;2022-10-22T12:08:01;21.80;;;12.03;;
6388;SDS011;3227;42.654;23.360;2022-10-22T12:10:48;27.80;;;11.93;;
6388;SDS011;3227;42.654;23.360;2022-10-22T12:13:31;20.10;;;12.07;;
6388;SDS011;3227;42.654;23.360;2022-10-22T12:16:14;25.00;;;13.10;;
6388;SDS011;3227;42.654;23.360;2022-10-22T12:18:41;18.90;;;11.30;;
6388;SDS011;3227;42.654;23.360;2022-10-22T12:21:10;18.67;;;11.10;;
6388;SDS011;3227;42.654;23.360;2022-10-22T12:23:38;22.17;;;13.47;;
6388;SDS011;3227;42.654;23.360;2022-10-22T12:26:19;25.73;;;11.30;;
6388;SDS011;3227;42.654;23.360;2022-10-22T12:28:55;22.33;;;11.33;;
6388;SDS011;3227;42.654;23.360;2022-10-22T12:31:25;24.87;;;11.90;;
6388;SDS011;3227;42.654;23.360;2022-10-22T12:33:56;22.25;;;11.20;;
6388;SDS011;3227;42.654;23.360;2022-10-22T12:36:24;19.87;;;11.50;;
6388;SDS011;3227;42.654;23.360;2022-10-22T12:38:52;17.90;;;11.40;;
6388;SDS011;3227;42.654;23.360;2022-10-22T12:41:19;27.57;;;11.23;;
6388;SDS011;3227;42.654;23.360;2022-10-22T12:43:47;16.67;;;11.33;;
6388;SDS011;3227;42.654;23.360;2022-10-22T12:46:14;23.40;;;11.63;;
6388;SDS011;3227;42.654;23.360;2022-10-22T12:48:43;22.38;;;10.90;;
6388;SDS011;3227;42.654;23.360;2022-10-22T12:51:15;21.95;;;10.63;;
6388;SDS011;3227;42.654;23.360;2022-10-22T12:53:48;21.90;;;10.77;;
6388;SDS011;3227;42.654;23.360;2022-10-22T12:56:19;21.40;;;11.17;;
6388;SDS011;3227;42.654;23.360;2022-10-22T12:58:50;20.25;;;10.63;;
6388;SDS011;3227;42.654;23.360;2022-10-22T13:01:23;17.58;;;10.57;;
6388;SDS011;3227;42.654;23.360;2022-10-22T13:04:04;15.13;;;10.07;;
6388;SDS011;3227;42.654;23.360;2022-10-22T13:06:42;16.52;;;10.38;;
6388;SDS011;3227;42.654;23.360;2022-10-22T13:09:13;19.40;;;10.10;;
6388;SDS011;3227;42.654;23.360;2022-10-22T13:11:48;16.65;;;9.90;;
6388;SDS011;3227;42.654;23.360;2022-10-22T13:14:20;18.33;;;10.00;;
6388;SDS011;3227;42.654;23.360;2022-10-22T13:17:02;20.77;;;9.90;;
6388;SDS011;3227;42.654;23.360;2022-10-22T13:19:38;18.38;;;9.63;;
6388;SDS011;3227;42.654;23.360;2022-10-22T13:22:24;18.23;;;10.00;;
6388;SDS011;3227;42.654;23.360;2022-10-22T13:24:53;17.27;;;10.25;;
6388;SDS011;3227;42.654;23.360;2022-10-22T13:27:23;21.00;;;10.07;;
6388;SDS011;3227;42.654;23.360;2022-10-22T13:29:50;22.75;;;10.98;;
6388;SDS011;3227;42.654;23.360;2022-10-22T13:32:22;16.63;;;10.07;;
6388;SDS011;3227;42.654;23.360;2022-10-22T13:34:58;19.35;;;9.60;;
6388;SDS011;3227;42.654;23.360;2022-10-22T13:37:26;17.85;;;10.05;;
6388;SDS011;3227;42.654;23.360;2022-10-22T13:39:54;15.80;;;9.95;;
6388;SDS011;3227;42.654;23.360;2022-10-22T13:42:21;17.15;;;10.52;;
6388;SDS011;3227;42.654;23.360;2022-10-22T13:44:48;14.48;;;10.20;;
6388;SDS011;3227;42.654;23.360;2022-10-22T13:47:17;22.08;;;10.32;;
6388;SDS011;3227;42.654;23.360;2022-10-22T13:49:50;17.60;;;10.15;;
6388;SDS011;3227;42.654;23.360;2022-10-22T13:52:27;25.92;;;10.00;;
6388;SDS011;3227;42.654;23.360;2022-10-22T13:54:56;17.48;;;9.52;;
6388;SDS011;3227;42.654;23.360;2022-10-22T13:57:23;20.15;;;9.30;;
6388;SDS011;3227;42.654;23.360;2022-10-22T13:59:50;16.42;;;9.25;;
6388;SDS011;3227;42.654;23.360;2022-10-22T14:02:16;16.20;;;9.68;;
6388;SDS011;3227;42.654;23.360;2022-10-22T14:04:46;20.42;;;9.85;;
6388;SDS011;3227;42.654;23.360;2022-10-22T14:10:01;15.57;;;9.32;;
6388;SDS011;3227;42.654;23.360;2022-10-22T14:12:28;16.17;;;9.27;;
6388;SDS011;3227;42.654;23.360;2022-10-22T14:14:55;16.13;;;9.73;;
6388;SDS011;3227;42.654;23.360;2022-10-22T14:17:22;13.85;;;9.77;;
6388;SDS011;3227;42.654;23.360;2022-10-22T14:19:49;19.02;;;9.65;;
6388;SDS011;3227;42.654;23.360;2022-10-22T14:22:16;15.10;;;9.77;;
6388;SDS011;3227;42.654;23.360;2022-10-22T14:24:45;17.80;;;10.13;;
6388;SDS011;3227;42.654;23.360;2022-10-22T14:27:14;15.80;;;9.80;;
6388;SDS011;3227;42.654;23.360;2022-10-22T14:29:43;13.80;;;9.40;;
6388;SDS011;3227;42.654;23.360;2022-10-22T14:32:14;18.20;;;10.37;;
6388;SDS011;3227;42.654;23.360;2022-10-22T14:35:17;16.45;;;9.90;;
6388;SDS011;3227;42.654;23.360;2022-10-22T14:37:44;21.27;;;10.45;;
6388;SDS011;3227;42.654;23.360;2022-10-22T14:40:13;16.55;;;9.75;;
6388;SDS011;3227;42.654;23.360;2022-10-22T14:42:42;21.17;;;11.52;;
6388;SDS011;3227;42.654;23.360;2022-10-22T14:45:12;17.55;;;10.90;;
6388;SDS011;3227;42.654;23.360;2022-10-22T14:47:41;19.73;;;10.00;;
6388;SDS011;3227;42.654;23.360;2022-10-22T14:50:08;19.23;;;10.40;;
6388;SDS011;3227;42.654;23.360;2022-10-22T14:52:36;13.85;;;10.02;;
6388;SDS011;3227;42.654;23.360;2022-10-22T14:55:07;17.23;;;10.67;;
6388;SDS011;3227;42.654;23.360;2022-10-22T14:57:36;22.17;;;9.73;;
6388;SDS011;3227;42.654;23.360;2022-10-22T15:00:04;20.63;;;11.55;;
6388;SDS011;3227;42.654;23.360;2022-10-22T15:02:34;19.70;;;11.20;;
6388;SDS011;3227;42.654;23.360;2022-10-22T15:05:01;18.48;;;10.45;;
6388;SDS011;3227;42.654;23.360;2022-10-22T15:07:27;24.23;;;10.45;;